createdAt,value
2019-05-03T00:01:43.700Z,17.50
2019-05-03T00:11:48.497Z,19.30
2019-05-03T00:21:53.280Z,18.40
2019-05-03T00:31:58.568Z,16.40
2019-05-03T00:42:03.599Z,17.57
2019-05-03T00:52:08.815Z,17.30
2019-05-03T01:02:14.202Z,19.20
2019-05-03T01:12:19.669Z,19.10
2019-05-03T01:22:24.891Z,19.57
2019-05-03T01:32:29.867Z,21.97
2019-05-03T01:42:35.034Z,18.30
2019-05-03T01:52:42.074Z,18.23
2019-05-03T02:02:57.322Z,22.93
2019-05-03T02:13:02.526Z,21.00
2019-05-03T02:23:09.306Z,18.57
2019-05-03T02:33:14.786Z,19.87
2019-05-03T02:43:21.876Z,16.17
2019-05-03T02:53:27.238Z,15.47
2019-05-03T03:03:36.241Z,16.70
2019-05-03T03:13:40.983Z,15.27
2019-05-03T03:24:06.155Z,16.87
2019-05-03T03:34:18.193Z,19.57
2019-05-03T03:44:45.483Z,17.60
2019-05-03T03:54:36.012Z,18.27
2019-05-03T04:04:41.593Z,17.03
2019-05-03T04:14:48.548Z,18.17
2019-05-03T04:24:55.307Z,21.07
2019-05-03T04:35:01.017Z,20.90
2019-05-03T04:45:07.980Z,18.23
2019-05-03T04:55:19.482Z,14.40
2019-05-03T05:05:26.574Z,16.20
2019-05-03T05:15:35.188Z,15.00
2019-05-03T05:25:51.134Z,18.23
2019-05-03T05:35:54.675Z,15.43
2019-05-03T05:45:59.596Z,19.00
2019-05-03T05:56:22.449Z,23.13
2019-05-03T06:06:28.879Z,27.53
2019-05-03T06:16:51.578Z,25.47
2019-05-03T06:27:05.046Z,26.33
2019-05-03T06:37:17.478Z,23.23
2019-05-03T06:47:22.257Z,20.77
2019-05-03T06:57:27.039Z,18.40
2019-05-03T07:07:44.316Z,18.10
2019-05-03T07:17:49.152Z,19.37
2019-05-03T07:27:55.519Z,24.60
2019-05-03T07:38:02.088Z,19.87
2019-05-03T07:48:07.077Z,21.07
2019-05-03T07:58:16.146Z,22.33
2019-05-03T08:08:20.926Z,23.40
2019-05-03T08:18:25.901Z,20.93
2019-05-03T08:28:30.783Z,20.73
2019-05-03T08:38:35.557Z,23.60
2019-05-03T08:48:40.336Z,21.10
2019-05-03T08:58:45.261Z,19.63
2019-05-03T09:08:54.364Z,15.73
2019-05-03T09:18:58.234Z,17.10
2019-05-03T09:29:03.122Z,16.50
2019-05-03T09:39:08.199Z,15.87
2019-05-03T09:49:16.275Z,22.73
2019-05-03T09:59:19.410Z,38.00
2019-05-03T10:09:26.209Z,26.63
2019-05-03T10:29:46.274Z,15.20
2019-05-03T10:39:51.657Z,15.30
2019-05-03T10:49:57.050Z,10.40
2019-05-03T11:00:02.552Z,14.80
2019-05-03T11:10:08.338Z,14.27
2019-05-03T11:20:18.219Z,7.80
2019-05-03T12:13:05.253Z,10.83
2019-05-03T12:23:11.930Z,10.07
2019-05-03T12:33:20.594Z,12.63
2019-05-03T12:43:26.166Z,13.40
2019-05-03T12:53:51.110Z,14.70
2019-05-03T13:04:06.113Z,15.13
2019-05-03T13:14:11.312Z,20.73
2019-05-03T13:24:23.230Z,14.60
2019-05-03T13:34:28.266Z,10.70
2019-05-03T13:44:36.246Z,11.27
2019-05-03T13:54:45.141Z,14.47
2019-05-03T14:04:52.399Z,13.60
2019-05-03T14:14:56.320Z,12.77
2019-05-03T14:25:01.353Z,14.03
2019-05-03T14:35:06.259Z,13.80
2019-05-03T14:45:11.009Z,12.83
2019-05-03T14:55:20.355Z,11.57
2019-05-03T15:05:25.357Z,11.30
2019-05-03T15:15:30.441Z,15.23
2019-05-03T15:25:35.218Z,16.37
2019-05-03T15:35:55.280Z,13.73
2019-05-03T15:46:05.218Z,15.73
2019-05-03T15:56:14.722Z,16.50
2019-05-03T16:06:24.747Z,16.00
2019-05-03T16:17:12.267Z,20.40
2019-05-03T16:27:30.509Z,19.73
2019-05-03T16:38:20.361Z,20.23
2019-05-03T16:49:08.516Z,20.60
2019-05-03T16:59:56.851Z,16.40
2019-05-03T17:10:12.537Z,16.53
2019-05-03T17:20:17.305Z,19.27
2019-05-03T17:30:22.636Z,18.13
2019-05-03T17:40:45.639Z,20.60
2019-05-03T17:50:50.375Z,21.73
2019-05-03T18:01:13.111Z,19.90
2019-05-03T18:11:22.472Z,19.33
2019-05-03T18:21:40.423Z,21.68
2019-05-03T18:31:45.277Z,23.63
2019-05-03T18:41:50.072Z,21.23
2019-05-03T18:51:55.417Z,23.53
2019-05-03T19:02:00.636Z,28.97
2019-05-03T19:12:23.743Z,31.00
2019-05-03T19:22:28.593Z,28.03
2019-05-03T19:32:35.655Z,26.30
2019-05-03T19:42:39.998Z,26.90
2019-05-03T19:52:58.834Z,30.63
2019-05-03T20:03:10.426Z,34.83
2019-05-03T20:13:15.320Z,37.47
2019-05-03T20:23:20.267Z,41.83
2019-05-03T20:33:25.152Z,38.27
2019-05-03T20:43:39.901Z,34.77
2019-05-03T20:53:44.927Z,34.00
2019-05-03T21:03:50.934Z,36.70
2019-05-03T21:13:55.776Z,33.80
2019-05-03T21:24:05.140Z,31.47
2019-05-03T21:34:09.981Z,37.90
2019-05-03T21:44:34.590Z,33.93
2019-05-03T21:54:39.427Z,37.93
2019-05-03T22:04:44.536Z,43.10
2019-05-03T22:15:04.971Z,38.60
2019-05-03T22:25:11.121Z,33.27
2019-05-03T22:35:15.964Z,44.63
2019-05-03T22:45:20.843Z,44.27
2019-05-03T22:55:25.648Z,48.67
2019-05-03T23:05:30.505Z,44.10
2019-05-03T23:15:35.299Z,39.23
2019-05-03T23:25:40.093Z,33.20
2019-05-03T23:35:45.158Z,38.77
2019-05-03T23:45:49.993Z,39.17
2019-05-03T23:56:06.661Z,34.03
